1956 Tropical Low NOT_NAMED (1956015S12128)


IBTrACS version v04r00. Visit IBTrACS website for data access.
Please direct all questions to the IBTrACS Q and A forum

Storm track - Intensity - Wind Radii - Intensity Data - Source Data - All data

Summary Information

Storm ID 1956015S12128
Start Jan 14 23Z
Max Intensity 25 kt (Jan 15 00Z), 970 mb (Jan 19 01Z)
End Jan 24 23Z
ATCF IDs ,SH091956
Track status Best track data.

Storm track plot

Map of storm track

Intensity plots

Map of storm track

Radial wind information

No radial wind information for this storm


Position and Intensity Table

BASIN ISO_TIME_________ NATURE LAT LON WMO PRES BOM PRES DS824 WIND
degrees north degrees east mb mb kts
SI 1956-01-14 23:00:00 NR -12.10 128.20
SI 1956-01-15 00:00:00 TS -12.19 127.99 25
SI 03:00:00 TS -12.43 127.29 25
SI 06:00:00 TS -12.69 126.61 25
SI 09:00:00 TS -12.98 125.94 25
SI 11:00:00 TS -13.19 125.51 25
SI 12:00:00 TS -13.31 125.29 25
SI 15:00:00 TS -13.70 124.63 25
SI 18:00:00 TS -14.11 123.99 25
SI 21:00:00 TS -14.49 123.37 25
SI 23:00:00 TS -14.71 122.99 25
SI 1956-01-16 00:00:00 TS -14.79 122.81 25
SI 01:00:00 TS -14.84 122.65 998 998 25
SI 03:00:00 TS -14.94 122.33 25
SI 06:00:00 TS -15.07 121.87 25
SI 09:00:00 TS -15.22 121.38 25
SI 11:00:00 TS -15.32 121.05 25
SI 12:00:00 TS -15.38 120.88 25
SI 15:00:00 TS -15.53 120.39 25
SI 18:00:00 TS -15.70 119.90 25
SI 21:00:00 TS -15.88 119.39 25
SI 23:00:00 TS -16.00 119.05 25
SI 1956-01-17 00:00:00 TS -16.05 118.90 25
SI 01:00:00 TS -16.11 118.72 985 985 25
SI 03:00:00 TS -16.23 118.40 25
SI 06:00:00 TS -16.40 117.90 25
SI 09:00:00 TS -16.57 117.38 25
SI 11:00:00 TS -16.70 117.01 25
SI 12:00:00 TS -16.76 116.81 25
SI 15:00:00 TS -16.96 116.16 25
SI 18:00:00 TS -17.18 115.45 25
SI 21:00:00 TS -17.42 114.70 25
SI 22:10:00 TS -17.51 114.41 982 982 25
SI 23:00:00 TS -17.58 114.20 981 25
SI 1956-01-18 00:00:00 TS -17.65 113.97 980 25
SI 01:00:00 TS -17.71 113.76 980 980 25
SI 03:00:00 TS -17.79 113.42 25
SI 06:00:00 TS -17.87 113.01 25
SI 09:00:00 TS -17.92 112.65 25
SI 11:00:00 TS -17.96 112.42 25
SI 12:00:00 TS -17.97 112.31 25
SI 15:00:00 TS -18.04 111.96 25
SI 18:00:00 TS -18.10 111.58 25
SI 21:00:00 TS -18.16 111.18 25
SI 23:00:00 TS -18.19 110.89 25
SI 1956-01-19 00:00:00 TS -18.19 110.73 25
SI 01:00:00 TS -18.20 110.56 970 970 25
SI 03:00:00 TS -18.22 110.20 25
SI 06:00:00 TS -18.27 109.64 25
SI 09:00:00 TS -18.32 109.05 25
SI 11:00:00 TS -18.36 108.63 25
SI 12:00:00 TS -18.38 108.42 25
SI 15:00:00 TS -18.46 107.71 25
SI 18:00:00 TS -18.55 106.99 25
SI 21:00:00 TS -18.65 106.31 25
SI 23:00:00 TS -18.77 105.87 25
SI 1956-01-20 00:00:00 TS -18.86 105.67 25
SI 01:00:00 TS -18.98 105.49 980 980 25
SI 03:00:00 TS -19.10 105.13 25
SI 06:00:00 TS -19.19 104.58 25
SI 09:00:00 TS -19.24 104.00 25
SI 11:00:00 TS -19.28 103.61 25
SI 12:00:00 TS -19.31 103.40 25
SI 15:00:00 TS -19.43 102.75 25
SI 18:00:00 TS -19.58 102.10 25
SI 21:00:00 TS -19.72 101.48 25
SI 23:00:00 TS -19.83 101.09 25
SI 1956-01-21 00:00:00 TS -19.89 100.90 25
SI 03:00:00 TS -20.06 100.37 25
SI 06:00:00 TS -20.31 99.89 25
SI 09:00:00 TS -20.65 99.46 25
SI 11:00:00 TS -20.93 99.21 25
SI 12:00:00 TS -21.08 99.09 25
SI 15:00:00 TS -21.56 98.77 25
SI 18:00:00 TS -22.09 98.51 25
SI 21:00:00 TS -22.65 98.28 25
SI 23:00:00 TS -23.02 98.17 25
SI 1956-01-22 00:00:00 TS -23.19 98.11 25
SI 03:00:00 TS -23.65 97.98 25
SI 06:00:00 TS -24.10 97.88 25
SI 09:00:00 TS -24.59 97.78 25
SI 11:00:00 TS -24.92 97.72 25
SI 12:00:00 TS -25.09 97.69 25
SI 15:00:00 TS -25.59 97.63 25
SI 18:00:00 TS -26.10 97.61 25
SI 21:00:00 TS -26.64 97.63 25
SI 23:00:00 TS -27.01 97.68 25
SI 1956-01-23 00:00:00 TS -27.19 97.71 25
SI 03:00:00 TS -27.75 97.83 25
SI 06:00:00 TS -28.30 97.98 25
SI 09:00:00 TS -28.86 98.09 25
SI 11:00:00 TS -29.22 98.17 25
SI 12:00:00 TS -29.39 98.21 25
SI 15:00:00 TS -29.85 98.36 25
SI 18:00:00 TS -30.28 98.56 25
SI 21:00:00 TS -30.73 98.76 25
SI 23:00:00 TS -31.03 98.97 25
SI 1956-01-24 00:00:00 TS -31.19 99.13 25
SI 03:00:00 TS -31.69 99.81 25
SI 06:00:00 TS -32.21 100.61 25
SI 09:00:00 TS -32.76 101.36 25
SI 11:00:00 TS -33.12 101.81 25
SI 12:00:00 TS -33.29 101.99 25
SI 15:00:00 TS -33.76 102.41 25
SI 18:00:00 TS -34.22 102.70 25
SI 21:00:00 NR -34.69 102.89
SI 23:00:00 NR -35.00 103.00

Source Information

Agency Information
USA bsh091956.txt
TOKYO
CMA
HKO
NEWDELHI
REUNION
BOM IDCKMSTM0S.csv:Line=2080:unnamed
NADI
WELLINGTON
DS824 s_hem.dat:660:09S
TD9636 cons_worldwide_trop_cyclone_18710101-19891231-006:Line=4400
TD9635
NEUMANN
MLC

All available IBTrACS Data

SEASON BASIN SUBBASIN ISO_TIME_________ NATURE LAT LON WMO PRES WMO AGENCY DIST2LAND LANDFALL IFLAG USA AGENCY USA ATCF_ID USA LAT USA LON USA SSHS BOM LAT BOM LON BOM PRES BOM PRES_METHOD DS824 LAT DS824 LON DS824 STAGE DS824 WIND TD9636 LAT TD9636 LON TD9636 STAGE STORM SPEED STORM DIR
Year degrees north degrees east mb km km degrees north degrees east 1 degrees north degrees east mb degrees north degrees east kts degrees north degrees east kts degrees
1956 SI WA 1956-01-14 23:00:00 NR -12.10 128.20 209 204 __________O___ -1 -12.10 128.20 7 14 247
1956 SI WA 1956-01-15 00:00:00 TS -12.19 127.99 204 158 O________OP___ jtwc_sh SH091956 -12.20 128.00 -1 -12.20 128.00 TC 25 -12.18 127.97 7 14 249
1956 SI WA 03:00:00 TS -12.43 127.29 158 125 P________PP___ SH091956 -12.45 127.29 -1 -12.45 127.29 TC 25 -12.42 127.30 7 14 250
1956 SI WA 06:00:00 TS -12.69 126.61 127 112 O________OP___ jtwc_sh SH091956 -12.70 126.60 -1 -12.70 126.60 TC 25 -12.68 126.62 7 14 248
1956 SI WA 09:00:00 TS -12.98 125.94 114 104 P________PP___ SH091956 -12.98 125.94 -1 -12.98 125.94 TC 25 -12.97 125.95 7 14 245
1956 SI WA 11:00:00 TS -13.19 125.51 110 108 P________PO___ SH091956 -13.19 125.51 -1 -13.19 125.51 TC 25 -13.20 125.50 7 14 242
1956 SI WA 12:00:00 TS -13.31 125.29 116 108 O________OP___ jtwc_sh SH091956 -13.30 125.30 -1 -13.30 125.30 TC 25 -13.32 125.28 7 15 239
1956 SI WA 15:00:00 TS -13.70 124.63 119 116 P________PP___ SH091956 -13.69 124.64 -1 -13.69 124.64 TC 25 -13.72 124.62 7 15 238
1956 SI WA 18:00:00 TS -14.11 123.99 140 140 O________OP___ jtwc_sh SH091956 -14.10 124.00 -1 -14.10 124.00 TC 25 -14.12 123.98 7 15 237
1956 SI WA 21:00:00 TS -14.49 123.37 163 163 P________PP___ SH091956 -14.49 123.37 -1 -14.49 123.37 TC 25 -14.49 123.38 7 14 238
1956 SI WA 23:00:00 TS -14.71 122.99 180 178 P________PO___ SH091956 -14.71 122.98 -1 -14.71 122.98 TC 25 -14.70 123.00 7 13 241
1956 SI WA 1956-01-16 00:00:00 TS -14.79 122.81 184 184 O________OP___ jtwc_sh SH091956 -14.80 122.80 -1 -14.80 122.80 TC 25 -14.78 122.82 7 11 247
1956 SI WA 01:00:00 TS -14.84 122.65 998 bom 192 181 P_____O__PP___ SH091956 -14.87 122.64 -1 -14.60 122.70 998 -14.87 122.64 TC 25 -14.85 122.65 7 10 252
1956 SI WA 03:00:00 TS -14.94 122.33 190 179 P_____P__PP___ SH091956 -14.98 122.33 -1 -14.74 122.35 -14.98 122.33 TC 25 -14.96 122.33 7 9 253
1956 SI WA 06:00:00 TS -15.07 121.87 189 189 O_____P__OP___ jtwc_sh SH091956 -15.10 121.90 -1 -14.95 121.82 -15.10 121.90 TC 25 -15.10 121.87 7 10 253
1956 SI WA 09:00:00 TS -15.22 121.38 216 216 P_____P__PP___ SH091956 -15.25 121.41 -1 -15.16 121.30 -15.25 121.41 TC 25 -15.22 121.41 7 10 252
1956 SI WA 11:00:00 TS -15.32 121.05 231 231 P_____P__PO___ SH091956 -15.35 121.07 -1 -15.29 120.97 -15.35 121.07 TC 25 -15.30 121.10 7 10 252
1956 SI WA 12:00:00 TS -15.38 120.88 239 239 O_____P__OP___ jtwc_sh SH091956 -15.40 120.90 -1 -15.35 120.80 -15.40 120.90 TC 25 -15.35 120.93 7 10 252
1956 SI WA 15:00:00 TS -15.53 120.39 270 270 P_____P__PP___ SH091956 -15.54 120.41 -1 -15.53 120.33 -15.54 120.41 TC 25 -15.52 120.43 7 10 251
1956 SI WA 18:00:00 TS -15.70 119.90 300 300 O_____P__OP___ jtwc_sh SH091956 -15.70 119.90 -1 -15.70 119.88 -15.70 119.90 TC 25 -15.69 119.90 7 10 251
1956 SI WA 21:00:00 TS -15.88 119.39 337 337 P_____P__PP___ SH091956 -15.89 119.36 -1 -15.84 119.47 -15.89 119.36 TC 25 -15.87 119.37 7 10 250
1956 SI WA 23:00:00 TS -16.00 119.05 370 370 P_____P__PO___ SH091956 -16.03 118.99 -1 -15.93 119.23 -16.03 118.99 TC 25 -16.00 119.00 7 10 250
1956 SI WA 1956-01-17 00:00:00 TS -16.05 118.90 380 376 O_____P__OP___ jtwc_sh SH091956 -16.10 118.80 -1 -15.96 119.11 -16.10 118.80 TC 25 -16.06 118.82 7 10 250
1956 SI WA 01:00:00 TS -16.11 118.72 985 bom 396 396 P_____O__PP___ SH091956 -16.17 118.62 -1 -16.00 119.00 985 -16.17 118.62 TC 25 -16.12 118.64 7 10 250
1956 SI WA 03:00:00 TS -16.23 118.40 423 423 P_____P__PP___ SH091956 -16.30 118.26 -1 -16.06 118.80 -16.30 118.26 TC 25 -16.25 118.27 7 10 250
1956 SI WA 06:00:00 TS -16.40 117.90 432 429 O_____P__OP___ jtwc_sh SH091956 -16.50 117.70 -1 -16.15 118.50 -16.50 117.70 TC 25 -16.45 117.70 7 10 250
1956 SI WA 09:00:00 TS -16.57 117.38 430 427 P_____P__PP___ SH091956 -16.70 117.12 -1 -16.24 118.18 -16.70 117.12 TC 25 -16.66 117.11 7 11 251
1956 SI WA 11:00:00 TS -16.70 117.01 429 429 P_____P__PO___ SH091956 -16.83 116.71 -1 -16.31 117.93 -16.83 116.71 TC 25 -16.80 116.70 7 12 251
1956 SI WA 12:00:00 TS -16.76 116.81 425 406 O_____P__OP___ jtwc_sh SH091956 -16.90 116.50 -1 -16.36 117.79 -16.90 116.50 TC 25 -16.88 116.47 7 13 252
1956 SI WA 15:00:00 TS -16.96 116.16 406 400 P_____P__PP___ SH091956 -17.10 115.81 -1 -16.52 117.26 -17.10 115.81 TC 25 -17.13 115.76 7 14 252
1956 SI WA 18:00:00 TS -17.18 115.45 400 400 O_____P__OP___ jtwc_sh SH091956 -17.30 115.10 -1 -16.75 116.56 -17.30 115.10 TC 25 -17.38 115.04 7 15 252
1956 SI WA 21:00:00 TS -17.42 114.70 415 411 P_____P__PP___ SH091956 -17.52 114.39 -1 -17.05 115.63 -17.52 114.39 TC 25 -17.59 114.38 7 15 251
1956 SI WA 22:10:00 TS -17.51 114.41 982 bom 422 419 P_____O__PP___ SH091956 -17.60 114.14 -1 -17.20 115.20 982 -17.60 114.14 TC 25 -17.66 114.15 7 15 252
1956 SI WA 23:00:00 TS -17.58 114.20 424 424 P_____P__PO___ SH091956 -17.65 113.97 -1 -17.32 114.85 981 -17.65 113.97 TC 25 -17.70 114.00 7 14 252
1956 SI WA 1956-01-18 00:00:00 TS -17.65 113.97 435 431 O_____P__OP___ jtwc_sh SH091956 -17.70 113.80 -1 -17.46 114.42 980 -17.70 113.80 TC 25 -17.74 113.85 7 13 253
1956 SI WA 01:00:00 TS -17.71 113.76 980 bom 437 437 P_____O__PP___ SH091956 -17.73 113.66 -1 -17.60 114.00 980 -17.73 113.66 TC 25 -17.77 113.71 7 11 255
1956 SI WA 03:00:00 TS -17.79 113.42 452 452 P_____P__PP___ SH091956 -17.77 113.45 -1 -17.82 113.29 -17.77 113.45 TC 25 -17.81 113.48 7 9 257
1956 SI WA 06:00:00 TS -17.87 113.01 459 459 O_____P__OP___ jtwc_sh SH091956 -17.80 113.20 -1 -18.03 112.46 -17.80 113.20 TC 25 -17.85 113.18 7 7 260
1956 SI WA 09:00:00 TS -17.92 112.65 470 463 P_____P__PP___ SH091956 -17.84 112.91 -1 -18.14 111.87 -17.84 112.91 TC 25 -17.87 112.90 7 7 261
1956 SI WA 11:00:00 TS -17.96 112.42 467 467 P_____P__PO___ SH091956 -17.88 112.71 -1 -18.17 111.58 -17.88 112.71 TC 25 -17.90 112.70 7 7 261
1956 SI WA 12:00:00 TS -17.97 112.31 470 470 O_____P__OP___ jtwc_sh SH091956 -17.90 112.60 -1 -18.17 111.46 -17.90 112.60 TC 25 -17.93 112.58 7 7 260
1956 SI WA 15:00:00 TS -18.04 111.96 483 478 P_____P__PP___ SH091956 -17.99 112.23 -1 -18.14 111.17 -17.99 112.23 TC 25 -18.02 112.20 7 7 260
1956 SI WA 18:00:00 TS -18.10 111.58 493 493 O_____P__OP___ jtwc_sh SH091956 -18.10 111.80 -1 -18.07 110.95 -18.10 111.80 TC 25 -18.13 111.78 7 7 261
1956 SI WA 21:00:00 TS -18.16 111.18 506 506 P_____P__PP___ SH091956 -18.20 111.32 -1 -17.99 110.75 -18.20 111.32 TC 25 -18.23 111.33 7 8 262
1956 SI WA 23:00:00 TS -18.19 110.89 525 525 P_____P__PO___ SH091956 -18.27 110.98 -1 -17.94 110.59 -18.27 110.98 TC 25 -18.30 111.00 7 9 265
1956 SI WA 1956-01-19 00:00:00 TS -18.19 110.73 538 538 O_____P__OP___ jtwc_sh SH091956 -18.30 110.80 -1 -17.92 110.50 -18.30 110.80 TC 25 -18.33 110.83 7 9 269
1956 SI WA 01:00:00 TS -18.20 110.56 970 bom 545 545 P_____O__PP___ SH091956 -18.34 110.63 -1 -17.90 110.40 970 4 -18.34 110.63 TC 25 -18.35 110.66 7 10 266
1956 SI WA 03:00:00 TS -18.22 110.20 573 573 P_____P__PP___ SH091956 -18.41 110.27 -1 -17.88 110.16 -18.41 110.27 TC 25 -18.40 110.31 7 11 265
1956 SI WA 06:00:00 TS -18.27 109.64 610 610 O_____P__OP___ jtwc_sh SH091956 -18.50 109.70 -1 -17.87 109.71 -18.50 109.70 TC 25 -18.47 109.74 7 11 265
1956 SI WA 09:00:00 TS -18.32 109.05 659 659 P_____P__PP___ SH091956 -18.55 109.13 -1 -17.90 109.17 -18.55 109.13 TC 25 -18.55 109.13 7 11 265
1956 SI WA 11:00:00 TS -18.36 108.63 686 686 P_____P__PO___ SH091956 -18.58 108.72 -1 -17.93 108.76 -18.58 108.72 TC 25 -18.60 108.70 7 12 265
1956 SI WA 12:00:00 TS -18.38 108.42 703 703 O_____P__OP___ jtwc_sh SH091956 -18.60 108.50 -1 -17.94 108.55 -18.60 108.50 TC 25 -18.63 108.48 7 13 263
1956 SI WA 15:00:00 TS -18.46 107.71 759 759 P_____P__PP___ SH091956 -18.69 107.76 -1 -18.01 107.86 -18.69 107.76 TC 25 -18.73 107.78 7 14 263
1956 SI WA 18:00:00 TS -18.55 106.99 823 817 O_____P__OP___ jtwc_sh SH091956 -18.80 107.00 -1 -18.09 107.13 -18.80 107.00 TC 25 -18.84 107.06 7 14 262
1956 SI WA 21:00:00 TS -18.65 106.31 875 875 P_____P__PP___ SH091956 -18.90 106.32 -1 -18.18 106.36 -18.90 106.32 TC 25 -18.94 106.35 7 13 258
1956 SI WA 23:00:00 TS -18.77 105.87 906 906 P_____P__PO___ SH091956 -18.97 105.90 -1 -18.24 105.83 -18.97 105.90 TC 25 -19.00 105.90 7 13 251
1956 SI WA 1956-01-20 00:00:00 TS -18.86 105.67 919 919 O_____P__OP___ jtwc_sh SH091956 -19.00 105.70 -1 -18.27 105.57 -19.00 105.70 TC 25 -19.03 105.69 7 13 239
1956 SI WA 01:00:00 TS -18.98 105.49 980 bom 932 932 P_____O__PP___ SH091956 -19.04 105.51 -1 -18.30 105.30 980 -19.04 105.51 TC 25 -19.05 105.49 7 11 245
1956 SI WA 03:00:00 TS -19.10 105.13 965 965 P________PP___ SH091956 -19.11 105.14 -1 -19.11 105.14 TC 25 -19.10 105.10 7 11 257
1956 SI WA 06:00:00 TS -19.19 104.58 1008 1008 O________OP___ jtwc_sh SH091956 -19.20 104.60 -1 -19.20 104.60 TC 25 -19.16 104.54 7 11 263
1956 SI WA 09:00:00 TS -19.24 104.00 1066 1066 P________PP___ SH091956 -19.24 104.01 -1 -19.24 104.01 TC 25 -19.24 103.98 7 11 264
1956 SI WA 11:00:00 TS -19.28 103.61 1101 1101 P________PO___ SH091956 -19.27 103.61 -1 -19.27 103.61 TC 25 -19.30 103.60 7 12 263
1956 SI WA 12:00:00 TS -19.31 103.40 1121 1121 O________OP___ jtwc_sh SH091956 -19.30 103.40 -1 -19.30 103.40 TC 25 -19.33 103.39 7 12 260
1956 SI WA 15:00:00 TS -19.43 102.75 1186 1186 P________PP___ SH091956 -19.43 102.75 -1 -19.43 102.75 TC 25 -19.42 102.75 7 13 258
1956 SI WA 18:00:00 TS -19.58 102.10 1238 1238 O________OP___ jtwc_sh SH091956 -19.60 102.10 -1 -19.60 102.10 TC 25 -19.53 102.11 7 12 256
1956 SI WA 21:00:00 TS -19.72 101.48 1295 1295 P________PP___ SH091956 -19.74 101.48 -1 -19.74 101.48 TC 25 -19.68 101.49 7 12 255
1956 SI WA 23:00:00 TS -19.83 101.09 1332 1332 P________PO___ SH091956 -19.84 101.09 -1 -19.84 101.09 TC 25 -19.80 101.10 7 11 253
1956 SI WA 1956-01-21 00:00:00 TS -19.89 100.90 1349 1349 O________OP___ jtwc_sh SH091956 -19.90 100.90 -1 -19.90 100.90 TC 25 -19.86 100.91 7 11 251
1956 SI WA 03:00:00 TS -20.06 100.37 1394 1394 P________PP___ SH091956 -20.06 100.37 -1 -20.06 100.37 TC 25 -20.06 100.37 7 10 246
1956 SI WA 06:00:00 TS -20.31 99.89 1440 1440 O________OP___ jtwc_sh SH091956 -20.30 99.90 -1 -20.30 99.90 TC 25 -20.32 99.88 7 10 235
1956 SI WA 09:00:00 TS -20.65 99.46 1471 1471 P________PP___ SH091956 -20.65 99.47 -1 -20.65 99.47 TC 25 -20.64 99.45 7 11 226
1956 SI WA 11:00:00 TS -20.93 99.21 1498 1496 P________PO___ SH091956 -20.94 99.22 -1 -20.94 99.22 TC 25 -20.90 99.20 7 11 219
1956 SI WA 12:00:00 TS -21.08 99.09 1504 1504 O________OP___ jtwc_sh SH091956 -21.10 99.10 -1 -21.10 99.10 TC 25 -21.04 99.08 7 11 213
1956 SI WA 15:00:00 TS -21.56 98.77 1525 1525 P________PP___ SH091956 -21.58 98.77 -1 -21.58 98.77 TC 25 -21.53 98.77 7 12 208
1956 SI WA 18:00:00 TS -22.09 98.51 1542 1539 O________OP___ jtwc_sh SH091956 -22.10 98.50 -1 -22.10 98.50 TC 25 -22.07 98.52 7 12 202
1956 SI WA 21:00:00 TS -22.65 98.28 1551 1549 P________PP___ SH091956 -22.66 98.27 -1 -22.66 98.27 TC 25 -22.63 98.31 7 12 199
1956 SI WA 23:00:00 TS -23.02 98.17 1553 1553 P________PO___ SH091956 -23.03 98.15 -1 -23.03 98.15 TC 25 -23.00 98.20 7 11 197
1956 SI WA 1956-01-22 00:00:00 TS -23.19 98.11 1560 1557 O________OP___ jtwc_sh SH091956 -23.20 98.10 -1 -23.20 98.10 TC 25 -23.16 98.14 7 10 195
1956 SI WA 03:00:00 TS -23.65 97.98 1564 1561 P________PP___ SH091956 -23.66 97.98 -1 -23.66 97.98 TC 25 -23.64 97.97 7 9 193
1956 SI WA 06:00:00 TS -24.10 97.88 1564 1562 O________OP___ jtwc_sh SH091956 -24.10 97.90 -1 -24.10 97.90 TC 25 -24.11 97.84 7 10 191
1956 SI WA 09:00:00 TS -24.59 97.78 1564 1562 P________PP___ SH091956 -24.59 97.79 -1 -24.59 97.79 TC 25 -24.58 97.74 7 10 190
1956 SI WA 11:00:00 TS -24.92 97.72 1569 1566 P________PO___ SH091956 -24.93 97.73 -1 -24.93 97.73 TC 25 -24.90 97.70 7 10 189
1956 SI WA 12:00:00 TS -25.09 97.69 1566 1562 O________OP___ jtwc_sh SH091956 -25.10 97.70 -1 -25.10 97.70 TC 25 -25.07 97.68 7 10 187
1956 SI WA 15:00:00 TS -25.59 97.63 1569 1564 P________PP___ SH091956 -25.59 97.63 -1 -25.59 97.63 TC 25 -25.58 97.63 7 10 185
1956 SI WA 18:00:00 TS -26.10 97.61 1564 1560 O________OP___ jtwc_sh SH091956 -26.10 97.60 -1 -26.10 97.60 TC 25 -26.10 97.63 7 11 179
1956 SI WA 21:00:00 TS -26.64 97.63 1560 1549 P________PP___ SH091956 -26.64 97.62 -1 -26.64 97.62 TC 25 -26.64 97.66 7 11 176
1956 SI WA 23:00:00 TS -27.01 97.68 1549 1549 P________PO___ SH091956 -27.01 97.67 -1 -27.01 97.67 TC 25 -27.00 97.70 7 11 173
1956 SI WA 1956-01-23 00:00:00 TS -27.19 97.71 1549 1540 O________OP___ jtwc_sh SH091956 -27.20 97.70 -1 -27.20 97.70 TC 25 -27.18 97.72 7 11 169
1956 SI WA 03:00:00 TS -27.75 97.83 1541 1524 P________PP___ SH091956 -27.75 97.84 -1 -27.75 97.84 TC 25 -27.75 97.81 7 11 168
1956 SI WA 06:00:00 TS -28.30 97.98 1525 1520 O________OP___ jtwc_sh SH091956 -28.30 98.00 -1 -28.30 98.00 TC 25 -28.31 97.93 7 11 168
1956 SI WA 09:00:00 TS -28.86 98.09 1522 1516 P________PP___ SH091956 -28.86 98.09 -1 -28.86 98.09 TC 25 -28.85 98.09 7 11 170
1956 SI WA 11:00:00 TS -29.22 98.17 1518 1518 P________PO___ SH091956 -29.23 98.16 -1 -29.23 98.16 TC 25 -29.20 98.20 7 11 169
1956 SI WA 12:00:00 TS -29.39 98.21 1521 1510 O________OP___ jtwc_sh SH091956 -29.40 98.20 -1 -29.40 98.20 TC 25 -29.36 98.23 7 10 165
1956 SI WA 15:00:00 TS -29.85 98.36 1510 1503 P________PP___ SH091956 -29.86 98.38 -1 -29.86 98.38 TC 25 -29.81 98.34 7 10 161
1956 SI WA 18:00:00 TS -30.28 98.56 1503 1500 O________OP___ jtwc_sh SH091956 -30.30 98.60 -1 -30.30 98.60 TC 25 -30.25 98.49 7 9 159
1956 SI WA 21:00:00 TS -30.73 98.76 1496 1493 P________PP___ SH091956 -30.74 98.77 -1 -30.74 98.77 TC 25 -30.69 98.75 7 10 155
1956 SI WA 23:00:00 TS -31.03 98.97 1487 1481 P________PO___ SH091956 -31.04 98.96 -1 -31.04 98.96 TC 25 -31.00 99.00 7 11 146
1956 SI WA 1956-01-24 00:00:00 TS -31.19 99.13 1485 1434 O________OP___ jtwc_sh SH091956 -31.20 99.10 -1 -31.20 99.10 TC 25 -31.17 99.18 7 15 133
1956 SI WA 03:00:00 TS -31.69 99.81 1434 1349 P________PP___ SH091956 -31.69 99.78 -1 -31.69 99.78 TC 25 -31.69 99.86 7 16 129
1956 SI WA 06:00:00 TS -32.21 100.61 1349 1276 O________OP___ jtwc_sh SH091956 -32.20 100.60 -1 -32.20 100.60 TC 25 -32.23 100.62 7 17 129
1956 SI WA 09:00:00 TS -32.76 101.36 1265 1223 P________PP___ SH091956 -32.76 101.36 -1 -32.76 101.36 TC 25 -32.76 101.37 7 16 132
1956 SI WA 11:00:00 TS -33.12 101.81 1223 1202 P________PO___ SH091956 -33.13 101.81 -1 -33.13 101.81 TC 25 -33.10 101.80 7 15 135
1956 SI WA 12:00:00 TS -33.29 101.99 1202 1160 O________OP___ jtwc_sh SH091956 -33.30 102.00 -1 -33.30 102.00 TC 25 -33.27 101.98 7 12 142
1956 SI WA 15:00:00 TS -33.76 102.41 1159 1128 P________PP___ SH091956 -33.77 102.42 -1 -33.77 102.42 TC 25 -33.76 102.41 7 11 148
1956 SI WA 18:00:00 TS -34.22 102.70 1128 1109 O________OP___ jtwc_sh SH091956 -34.20 102.70 -1 -34.20 102.70 TC 25 -34.23 102.70 7 10 157
1956 SI WA 21:00:00 NR -34.69 102.89 1109 1100 __________P___ SH091956 -1 TC -34.69 102.89 7 10 162
1956 SI WA 23:00:00 NR -35.00 103.00 1100 __________O___ SH091956 -1 TC -35.00 103.00 7 10 164